sensor_id;sensor_type;location;lat;lon;timestamp;P1;durP1;ratioP1;P2;durP2;ratioP2
44822;SDS011;51097;51.984;5.650;2023-05-20T00:00:54;12.13;;;4.78;;
44822;SDS011;51097;51.984;5.650;2023-05-20T00:03:20;7.90;;;6.05;;
44822;SDS011;51097;51.984;5.650;2023-05-20T00:05:45;11.85;;;4.82;;
44822;SDS011;51097;51.984;5.650;2023-05-20T00:08:11;9.68;;;4.70;;
44822;SDS011;51097;51.984;5.650;2023-05-20T00:10:37;6.30;;;4.45;;
44822;SDS011;51097;51.984;5.650;2023-05-20T00:13:03;8.30;;;4.63;;
44822;SDS011;51097;51.984;5.650;2023-05-20T00:15:30;9.25;;;4.50;;
44822;SDS011;51097;51.984;5.650;2023-05-20T00:17:56;11.23;;;4.75;;
44822;SDS011;51097;51.984;5.650;2023-05-20T00:20:22;8.80;;;4.47;;
44822;SDS011;51097;51.984;5.650;2023-05-20T00:22:48;9.63;;;4.65;;
44822;SDS011;51097;51.984;5.650;2023-05-20T00:25:17;9.43;;;4.88;;
44822;SDS011;51097;51.984;5.650;2023-05-20T00:27:42;7.53;;;4.78;;
44822;SDS011;51097;51.984;5.650;2023-05-20T00:30:08;7.93;;;4.90;;
44822;SDS011;51097;51.984;5.650;2023-05-20T00:32:34;9.18;;;5.28;;
44822;SDS011;51097;51.984;5.650;2023-05-20T00:35:00;9.63;;;5.57;;
44822;SDS011;51097;51.984;5.650;2023-05-20T00:37:27;9.95;;;4.45;;
44822;SDS011;51097;51.984;5.650;2023-05-20T00:39:52;13.55;;;5.57;;
44822;SDS011;51097;51.984;5.650;2023-05-20T00:42:21;11.32;;;5.80;;
44822;SDS011;51097;51.984;5.650;2023-05-20T00:44:51;7.05;;;4.82;;
44822;SDS011;51097;51.984;5.650;2023-05-20T00:47:18;7.53;;;5.25;;
44822;SDS011;51097;51.984;5.650;2023-05-20T00:49:53;9.73;;;5.60;;
44822;SDS011;51097;51.984;5.650;2023-05-20T00:52:19;8.07;;;4.85;;
44822;SDS011;51097;51.984;5.650;2023-05-20T00:54:45;8.40;;;4.70;;
44822;SDS011;51097;51.984;5.650;2023-05-20T00:57:11;9.15;;;5.35;;
44822;SDS011;51097;51.984;5.650;2023-05-20T00:59:37;9.07;;;5.22;;
44822;SDS011;51097;51.984;5.650;2023-05-20T01:02:03;10.20;;;5.47;;
44822;SDS011;51097;51.984;5.650;2023-05-20T01:04:30;11.20;;;5.30;;
44822;SDS011;51097;51.984;5.650;2023-05-20T01:06:56;12.38;;;5.65;;
44822;SDS011;51097;51.984;5.650;2023-05-20T01:09:23;11.23;;;5.28;;
44822;SDS011;51097;51.984;5.650;2023-05-20T01:11:49;9.18;;;5.28;;
44822;SDS011;51097;51.984;5.650;2023-05-20T01:14:25;8.30;;;4.97;;
44822;SDS011;51097;51.984;5.650;2023-05-20T01:16:53;8.73;;;5.63;;
44822;SDS011;51097;51.984;5.650;2023-05-20T01:19:35;7.20;;;5.15;;
44822;SDS011;51097;51.984;5.650;2023-05-20T01:22:10;8.02;;;5.45;;
44822;SDS011;51097;51.984;5.650;2023-05-20T01:24:40;10.52;;;6.63;;
44822;SDS011;51097;51.984;5.650;2023-05-20T01:27:08;9.45;;;4.55;;
44822;SDS011;51097;51.984;5.650;2023-05-20T01:29:35;11.82;;;5.45;;
44822;SDS011;51097;51.984;5.650;2023-05-20T01:32:03;7.82;;;6.07;;
44822;SDS011;51097;51.984;5.650;2023-05-20T01:34:43;10.32;;;5.53;;
44822;SDS011;51097;51.984;5.650;2023-05-20T01:37:09;10.43;;;7.05;;
44822;SDS011;51097;51.984;5.650;2023-05-20T01:39:38;9.00;;;5.67;;
44822;SDS011;51097;51.984;5.650;2023-05-20T01:42:09;9.27;;;5.67;;
44822;SDS011;51097;51.984;5.650;2023-05-20T01:44:35;8.60;;;6.00;;
44822;SDS011;51097;51.984;5.650;2023-05-20T01:47:01;11.23;;;6.22;;
44822;SDS011;51097;51.984;5.650;2023-05-20T01:49:27;9.13;;;5.55;;
44822;SDS011;51097;51.984;5.650;2023-05-20T01:51:52;7.53;;;5.13;;
44822;SDS011;51097;51.984;5.650;2023-05-20T01:54:18;11.27;;;7.40;;
44822;SDS011;51097;51.984;5.650;2023-05-20T01:56:44;10.35;;;5.70;;
44822;SDS011;51097;51.984;5.650;2023-05-20T01:59:10;9.30;;;5.45;;
44822;SDS011;51097;51.984;5.650;2023-05-20T02:01:36;10.65;;;5.10;;
44822;SDS011;51097;51.984;5.650;2023-05-20T02:04:02;8.85;;;5.40;;
44822;SDS011;51097;51.984;5.650;2023-05-20T02:06:27;9.40;;;6.05;;
44822;SDS011;51097;51.984;5.650;2023-05-20T02:08:53;9.57;;;6.25;;
44822;SDS011;51097;51.984;5.650;2023-05-20T02:11:18;9.65;;;5.40;;
44822;SDS011;51097;51.984;5.650;2023-05-20T02:13:45;6.03;;;5.35;;
44822;SDS011;51097;51.984;5.650;2023-05-20T02:16:10;11.23;;;5.60;;
44822;SDS011;51097;51.984;5.650;2023-05-20T02:18:36;9.27;;;5.90;;
44822;SDS011;51097;51.984;5.650;2023-05-20T02:21:02;8.65;;;5.57;;
44822;SDS011;51097;51.984;5.650;2023-05-20T02:23:29;14.50;;;6.35;;
44822;SDS011;51097;51.984;5.650;2023-05-20T02:25:55;9.80;;;5.68;;
44822;SDS011;51097;51.984;5.650;2023-05-20T02:28:21;9.45;;;5.75;;
44822;SDS011;51097;51.984;5.650;2023-05-20T02:30:47;11.60;;;5.80;;
44822;SDS011;51097;51.984;5.650;2023-05-20T02:33:15;14.80;;;5.78;;
44822;SDS011;51097;51.984;5.650;2023-05-20T02:35:40;9.10;;;5.35;;
44822;SDS011;51097;51.984;5.650;2023-05-20T02:38:06;10.23;;;5.28;;
44822;SDS011;51097;51.984;5.650;2023-05-20T02:40:31;14.18;;;6.43;;
44822;SDS011;51097;51.984;5.650;2023-05-20T02:42:57;12.02;;;6.30;;
44822;SDS011;51097;51.984;5.650;2023-05-20T02:45:24;16.00;;;7.13;;
44822;SDS011;51097;51.984;5.650;2023-05-20T02:47:49;8.68;;;5.80;;
44822;SDS011;51097;51.984;5.650;2023-05-20T02:50:15;11.40;;;5.78;;
44822;SDS011;51097;51.984;5.650;2023-05-20T02:52:40;15.98;;;5.53;;
44822;SDS011;51097;51.984;5.650;2023-05-20T02:55:07;10.25;;;5.85;;
44822;SDS011;51097;51.984;5.650;2023-05-20T02:57:33;9.73;;;5.35;;
44822;SDS011;51097;51.984;5.650;2023-05-20T03:00:02;9.23;;;5.68;;
44822;SDS011;51097;51.984;5.650;2023-05-20T03:02:29;9.20;;;5.00;;
44822;SDS011;51097;51.984;5.650;2023-05-20T03:04:55;9.02;;;5.50;;
44822;SDS011;51097;51.984;5.650;2023-05-20T03:07:20;8.18;;;5.45;;
44822;SDS011;51097;51.984;5.650;2023-05-20T03:09:46;7.95;;;4.88;;
44822;SDS011;51097;51.984;5.650;2023-05-20T03:12:12;8.43;;;5.75;;
44822;SDS011;51097;51.984;5.650;2023-05-20T03:14:37;9.43;;;5.82;;
44822;SDS011;51097;51.984;5.650;2023-05-20T03:17:03;6.75;;;4.82;;
44822;SDS011;51097;51.984;5.650;2023-05-20T03:19:29;14.32;;;5.47;;
44822;SDS011;51097;51.984;5.650;2023-05-20T03:21:55;8.75;;;6.05;;
44822;SDS011;51097;51.984;5.650;2023-05-20T03:24:21;7.30;;;5.38;;
44822;SDS011;51097;51.984;5.650;2023-05-20T03:26:47;9.13;;;5.20;;
44822;SDS011;51097;51.984;5.650;2023-05-20T03:29:13;9.15;;;5.22;;
44822;SDS011;51097;51.984;5.650;2023-05-20T03:31:40;6.63;;;5.30;;
44822;SDS011;51097;51.984;5.650;2023-05-20T03:34:06;13.38;;;5.88;;
44822;SDS011;51097;51.984;5.650;2023-05-20T03:36:31;8.32;;;5.38;;
44822;SDS011;51097;51.984;5.650;2023-05-20T03:38:57;8.50;;;5.55;;
44822;SDS011;51097;51.984;5.650;2023-05-20T03:41:22;11.15;;;6.00;;
44822;SDS011;51097;51.984;5.650;2023-05-20T03:43:48;7.43;;;5.10;;
44822;SDS011;51097;51.984;5.650;2023-05-20T03:46:13;8.25;;;5.50;;
44822;SDS011;51097;51.984;5.650;2023-05-20T03:48:39;9.57;;;5.75;;
44822;SDS011;51097;51.984;5.650;2023-05-20T03:51:05;8.25;;;5.60;;
44822;SDS011;51097;51.984;5.650;2023-05-20T03:53:30;7.22;;;5.05;;
44822;SDS011;51097;51.984;5.650;2023-05-20T03:55:56;8.77;;;5.43;;
44822;SDS011;51097;51.984;5.650;2023-05-20T03:58:21;12.40;;;5.32;;
44822;SDS011;51097;51.984;5.650;2023-05-20T04:00:47;7.55;;;4.93;;
44822;SDS011;51097;51.984;5.650;2023-05-20T04:03:13;7.68;;;5.03;;
44822;SDS011;51097;51.984;5.650;2023-05-20T04:05:39;7.32;;;5.40;;
44822;SDS011;51097;51.984;5.650;2023-05-20T04:08:05;9.25;;;5.50;;
44822;SDS011;51097;51.984;5.650;2023-05-20T04:10:30;8.43;;;5.07;;
44822;SDS011;51097;51.984;5.650;2023-05-20T04:12:57;8.35;;;5.65;;
44822;SDS011;51097;51.984;5.650;2023-05-20T04:15:22;10.18;;;6.47;;
44822;SDS011;51097;51.984;5.650;2023-05-20T04:17:49;7.50;;;5.10;;
44822;SDS011;51097;51.984;5.650;2023-05-20T04:20:16;10.35;;;5.85;;
44822;SDS011;51097;51.984;5.650;2023-05-20T04:22:42;7.72;;;4.88;;
44822;SDS011;51097;51.984;5.650;2023-05-20T04:25:09;7.63;;;5.97;;
44822;SDS011;51097;51.984;5.650;2023-05-20T04:27:35;5.82;;;5.22;;
44822;SDS011;51097;51.984;5.650;2023-05-20T04:30:04;13.27;;;6.20;;
44822;SDS011;51097;51.984;5.650;2023-05-20T04:32:30;9.57;;;5.25;;
44822;SDS011;51097;51.984;5.650;2023-05-20T04:34:58;12.50;;;5.55;;
44822;SDS011;51097;51.984;5.650;2023-05-20T04:37:25;12.15;;;5.93;;
44822;SDS011;51097;51.984;5.650;2023-05-20T04:39:51;8.10;;;5.28;;
44822;SDS011;51097;51.984;5.650;2023-05-20T04:42:17;9.98;;;5.25;;
44822;SDS011;51097;51.984;5.650;2023-05-20T04:44:45;8.32;;;5.25;;
44822;SDS011;51097;51.984;5.650;2023-05-20T04:47:12;8.80;;;5.55;;
44822;SDS011;51097;51.984;5.650;2023-05-20T04:49:37;8.68;;;6.13;;
44822;SDS011;51097;51.984;5.650;2023-05-20T04:52:03;8.32;;;6.75;;
44822;SDS011;51097;51.984;5.650;2023-05-20T04:54:29;7.18;;;5.30;;
44822;SDS011;51097;51.984;5.650;2023-05-20T04:56:56;8.18;;;5.72;;
44822;SDS011;51097;51.984;5.650;2023-05-20T04:59:22;10.13;;;5.47;;
44822;SDS011;51097;51.984;5.650;2023-05-20T05:01:48;10.15;;;6.30;;
44822;SDS011;51097;51.984;5.650;2023-05-20T05:04:13;7.65;;;5.45;;
44822;SDS011;51097;51.984;5.650;2023-05-20T05:06:39;9.13;;;6.20;;
44822;SDS011;51097;51.984;5.650;2023-05-20T05:09:05;10.85;;;5.95;;
44822;SDS011;51097;51.984;5.650;2023-05-20T05:11:31;8.45;;;5.82;;
44822;SDS011;51097;51.984;5.650;2023-05-20T05:13:57;14.70;;;6.10;;
44822;SDS011;51097;51.984;5.650;2023-05-20T05:16:23;10.13;;;6.47;;
44822;SDS011;51097;51.984;5.650;2023-05-20T05:18:49;8.63;;;5.85;;
44822;SDS011;51097;51.984;5.650;2023-05-20T05:21:15;8.38;;;5.38;;
44822;SDS011;51097;51.984;5.650;2023-05-20T05:23:40;8.38;;;5.70;;
44822;SDS011;51097;51.984;5.650;2023-05-20T05:26:06;6.10;;;5.30;;
44822;SDS011;51097;51.984;5.650;2023-05-20T05:28:32;9.60;;;5.45;;
44822;SDS011;51097;51.984;5.650;2023-05-20T05:30:57;9.93;;;5.57;;
44822;SDS011;51097;51.984;5.650;2023-05-20T05:33:23;7.90;;;5.13;;
44822;SDS011;51097;51.984;5.650;2023-05-20T05:35:49;10.63;;;6.13;;
44822;SDS011;51097;51.984;5.650;2023-05-20T05:38:15;9.52;;;5.03;;
44822;SDS011;51097;51.984;5.650;2023-05-20T05:40:41;9.57;;;5.45;;
44822;SDS011;51097;51.984;5.650;2023-05-20T05:43:06;6.22;;;4.88;;
44822;SDS011;51097;51.984;5.650;2023-05-20T05:45:32;8.00;;;4.80;;
44822;SDS011;51097;51.984;5.650;2023-05-20T05:47:57;10.55;;;5.40;;
44822;SDS011;51097;51.984;5.650;2023-05-20T05:50:23;6.57;;;4.95;;
44822;SDS011;51097;51.984;5.650;2023-05-20T05:52:49;8.93;;;4.78;;
44822;SDS011;51097;51.984;5.650;2023-05-20T05:55:14;7.93;;;5.18;;
44822;SDS011;51097;51.984;5.650;2023-05-20T05:57:40;8.05;;;4.78;;
44822;SDS011;51097;51.984;5.650;2023-05-20T06:00:06;8.07;;;4.95;;
44822;SDS011;51097;51.984;5.650;2023-05-20T06:02:32;10.00;;;5.10;;
44822;SDS011;51097;51.984;5.650;2023-05-20T06:05:03;7.47;;;4.93;;
44822;SDS011;51097;51.984;5.650;2023-05-20T06:07:29;6.45;;;4.38;;
44822;SDS011;51097;51.984;5.650;2023-05-20T06:09:55;7.47;;;4.75;;
44822;SDS011;51097;51.984;5.650;2023-05-20T06:12:23;7.53;;;4.60;;
44822;SDS011;51097;51.984;5.650;2023-05-20T06:14:49;6.20;;;4.20;;
44822;SDS011;51097;51.984;5.650;2023-05-20T06:17:14;5.43;;;4.07;;
44822;SDS011;51097;51.984;5.650;2023-05-20T06:19:42;6.28;;;4.45;;
44822;SDS011;51097;51.984;5.650;2023-05-20T06:22:07;7.55;;;4.15;;
44822;SDS011;51097;51.984;5.650;2023-05-20T06:24:33;6.65;;;5.22;;
44822;SDS011;51097;51.984;5.650;2023-05-20T06:26:59;4.70;;;4.22;;
44822;SDS011;51097;51.984;5.650;2023-05-20T06:29:24;6.25;;;3.92;;
44822;SDS011;51097;51.984;5.650;2023-05-20T06:31:50;7.95;;;4.38;;
44822;SDS011;51097;51.984;5.650;2023-05-20T06:34:15;7.72;;;3.50;;
44822;SDS011;51097;51.984;5.650;2023-05-20T06:36:41;4.72;;;3.80;;
44822;SDS011;51097;51.984;5.650;2023-05-20T06:39:07;10.35;;;3.80;;
44822;SDS011;51097;51.984;5.650;2023-05-20T06:41:36;7.57;;;3.80;;
44822;SDS011;51097;51.984;5.650;2023-05-20T06:44:14;5.85;;;3.38;;
44822;SDS011;51097;51.984;5.650;2023-05-20T06:46:39;5.60;;;3.97;;
44822;SDS011;51097;51.984;5.650;2023-05-20T06:49:16;8.00;;;3.67;;
44822;SDS011;51097;51.984;5.650;2023-05-20T06:51:52;6.55;;;3.50;;
44822;SDS011;51097;51.984;5.650;2023-05-20T06:54:18;5.63;;;3.50;;
44822;SDS011;51097;51.984;5.650;2023-05-20T06:56:43;5.15;;;3.55;;
44822;SDS011;51097;51.984;5.650;2023-05-20T06:59:09;6.38;;;3.17;;
44822;SDS011;51097;51.984;5.650;2023-05-20T07:01:35;6.97;;;3.03;;
44822;SDS011;51097;51.984;5.650;2023-05-20T07:04:00;4.65;;;3.20;;
44822;SDS011;51097;51.984;5.650;2023-05-20T07:06:26;5.53;;;3.15;;
44822;SDS011;51097;51.984;5.650;2023-05-20T07:08:52;7.65;;;3.05;;
44822;SDS011;51097;51.984;5.650;2023-05-20T07:11:30;5.18;;;3.40;;
44822;SDS011;51097;51.984;5.650;2023-05-20T07:13:55;6.75;;;3.33;;
44822;SDS011;51097;51.984;5.650;2023-05-20T07:16:21;4.93;;;3.05;;
44822;SDS011;51097;51.984;5.650;2023-05-20T07:18:56;9.75;;;3.42;;
44822;SDS011;51097;51.984;5.650;2023-05-20T07:21:22;8.10;;;3.40;;
44822;SDS011;51097;51.984;5.650;2023-05-20T07:23:47;6.88;;;3.30;;
44822;SDS011;51097;51.984;5.650;2023-05-20T07:26:13;6.78;;;2.80;;
44822;SDS011;51097;51.984;5.650;2023-05-20T07:28:39;5.00;;;3.33;;
44822;SDS011;51097;51.984;5.650;2023-05-20T07:31:04;7.32;;;3.75;;
44822;SDS011;51097;51.984;5.650;2023-05-20T07:33:30;5.18;;;2.90;;
44822;SDS011;51097;51.984;5.650;2023-05-20T07:35:56;4.78;;;2.88;;
44822;SDS011;51097;51.984;5.650;2023-05-20T07:38:22;5.03;;;2.70;;
44822;SDS011;51097;51.984;5.650;2023-05-20T07:40:51;5.85;;;2.80;;
44822;SDS011;51097;51.984;5.650;2023-05-20T07:43:16;7.03;;;2.45;;
44822;SDS011;51097;51.984;5.650;2023-05-20T07:45:42;5.30;;;2.20;;
44822;SDS011;51097;51.984;5.650;2023-05-20T07:48:07;4.57;;;2.45;;
44822;SDS011;51097;51.984;5.650;2023-05-20T07:50:35;4.60;;;2.58;;
44822;SDS011;51097;51.984;5.650;2023-05-20T07:53:00;6.68;;;2.45;;
44822;SDS011;51097;51.984;5.650;2023-05-20T07:55:26;7.63;;;2.70;;
44822;SDS011;51097;51.984;5.650;2023-05-20T07:57:51;5.93;;;2.95;;
44822;SDS011;51097;51.984;5.650;2023-05-20T08:00:17;6.57;;;2.30;;
44822;SDS011;51097;51.984;5.650;2023-05-20T08:02:43;4.85;;;2.50;;
44822;SDS011;51097;51.984;5.650;2023-05-20T08:05:09;4.82;;;2.60;;
44822;SDS011;51097;51.984;5.650;2023-05-20T08:07:34;4.63;;;2.80;;
44822;SDS011;51097;51.984;5.650;2023-05-20T08:10:00;6.57;;;3.13;;
44822;SDS011;51097;51.984;5.650;2023-05-20T08:12:25;5.38;;;2.83;;
44822;SDS011;51097;51.984;5.650;2023-05-20T08:14:52;3.03;;;2.47;;
44822;SDS011;51097;51.984;5.650;2023-05-20T08:17:21;8.15;;;3.03;;
44822;SDS011;51097;51.984;5.650;2023-05-20T08:19:47;4.18;;;2.53;;
44822;SDS011;51097;51.984;5.650;2023-05-20T08:22:12;3.20;;;2.30;;
44822;SDS011;51097;51.984;5.650;2023-05-20T08:24:38;4.03;;;2.47;;
44822;SDS011;51097;51.984;5.650;2023-05-20T08:27:03;6.82;;;2.72;;
44822;SDS011;51097;51.984;5.650;2023-05-20T08:29:29;6.47;;;2.50;;
44822;SDS011;51097;51.984;5.650;2023-05-20T08:31:55;3.92;;;2.95;;
44822;SDS011;51097;51.984;5.650;2023-05-20T08:34:20;4.80;;;2.60;;
44822;SDS011;51097;51.984;5.650;2023-05-20T08:36:46;8.38;;;2.92;;
44822;SDS011;51097;51.984;5.650;2023-05-20T08:39:12;5.32;;;2.70;;
44822;SDS011;51097;51.984;5.650;2023-05-20T08:41:38;7.57;;;2.53;;
44822;SDS011;51097;51.984;5.650;2023-05-20T08:44:03;8.70;;;3.10;;
44822;SDS011;51097;51.984;5.650;2023-05-20T08:46:30;4.47;;;2.90;;
44822;SDS011;51097;51.984;5.650;2023-05-20T08:48:58;5.03;;;2.10;;
44822;SDS011;51097;51.984;5.650;2023-05-20T08:51:24;2.72;;;2.28;;
44822;SDS011;51097;51.984;5.650;2023-05-20T08:53:51;5.05;;;2.92;;
44822;SDS011;51097;51.984;5.650;2023-05-20T08:56:17;7.35;;;2.50;;
44822;SDS011;51097;51.984;5.650;2023-05-20T08:58:43;4.82;;;2.80;;
44822;SDS011;51097;51.984;5.650;2023-05-20T09:01:10;3.75;;;2.70;;
44822;SDS011;51097;51.984;5.650;2023-05-20T09:03:36;3.38;;;2.92;;
44822;SDS011;51097;51.984;5.650;2023-05-20T09:06:02;7.13;;;2.50;;
44822;SDS011;51097;51.984;5.650;2023-05-20T09:08:30;7.45;;;2.55;;
44822;SDS011;51097;51.984;5.650;2023-05-20T09:10:55;5.90;;;2.42;;
44822;SDS011;51097;51.984;5.650;2023-05-20T09:13:22;5.65;;;2.88;;
44822;SDS011;51097;51.984;5.650;2023-05-20T09:15:48;5.43;;;3.58;;
44822;SDS011;51097;51.984;5.650;2023-05-20T09:18:14;4.88;;;2.33;;
44822;SDS011;51097;51.984;5.650;2023-05-20T09:20:40;5.78;;;2.83;;
44822;SDS011;51097;51.984;5.650;2023-05-20T09:23:06;6.38;;;2.28;;
44822;SDS011;51097;51.984;5.650;2023-05-20T09:25:34;3.40;;;1.83;;
44822;SDS011;51097;51.984;5.650;2023-05-20T09:28:05;5.22;;;2.35;;
44822;SDS011;51097;51.984;5.650;2023-05-20T09:30:31;4.00;;;2.08;;
44822;SDS011;51097;51.984;5.650;2023-05-20T09:33:02;2.80;;;2.03;;
44822;SDS011;51097;51.984;5.650;2023-05-20T09:35:28;6.35;;;2.42;;
44822;SDS011;51097;51.984;5.650;2023-05-20T09:37:55;5.68;;;2.08;;
44822;SDS011;51097;51.984;5.650;2023-05-20T09:40:22;9.57;;;2.38;;
44822;SDS011;51097;51.984;5.650;2023-05-20T09:42:52;5.85;;;1.77;;
44822;SDS011;51097;51.984;5.650;2023-05-20T09:45:19;2.90;;;1.65;;
44822;SDS011;51097;51.984;5.650;2023-05-20T09:47:46;4.72;;;1.73;;
44822;SDS011;51097;51.984;5.650;2023-05-20T09:50:12;3.83;;;2.08;;
44822;SDS011;51097;51.984;5.650;2023-05-20T09:52:39;4.80;;;2.40;;
44822;SDS011;51097;51.984;5.650;2023-05-20T09:55:06;8.63;;;3.15;;
44822;SDS011;51097;51.984;5.650;2023-05-20T09:57:34;3.67;;;2.05;;
44822;SDS011;51097;51.984;5.650;2023-05-20T10:00:01;2.85;;;2.22;;
44822;SDS011;51097;51.984;5.650;2023-05-20T10:02:32;2.92;;;2.63;;
44822;SDS011;51097;51.984;5.650;2023-05-20T10:05:00;3.45;;;2.15;;
44822;SDS011;51097;51.984;5.650;2023-05-20T10:07:37;3.63;;;2.20;;
44822;SDS011;51097;51.984;5.650;2023-05-20T10:20:21;3.90;;;2.45;;
44822;SDS011;51097;51.984;5.650;2023-05-20T10:22:54;4.43;;;2.55;;
44822;SDS011;51097;51.984;5.650;2023-05-20T10:25:25;5.03;;;2.30;;
44822;SDS011;51097;51.984;5.650;2023-05-20T10:28:02;5.03;;;2.13;;
44822;SDS011;51097;51.984;5.650;2023-05-20T10:30:32;4.07;;;1.90;;
44822;SDS011;51097;51.984;5.650;2023-05-20T10:33:01;5.05;;;2.03;;
44822;SDS011;51097;51.984;5.650;2023-05-20T10:35:29;5.75;;;2.33;;
44822;SDS011;51097;51.984;5.650;2023-05-20T10:38:05;4.47;;;2.30;;
44822;SDS011;51097;51.984;5.650;2023-05-20T10:40:35;3.03;;;2.30;;
44822;SDS011;51097;51.984;5.650;2023-05-20T10:43:08;2.97;;;2.15;;
44822;SDS011;51097;51.984;5.650;2023-05-20T10:45:35;6.70;;;2.17;;
44822;SDS011;51097;51.984;5.650;2023-05-20T10:48:32;3.05;;;2.13;;
44822;SDS011;51097;51.984;5.650;2023-05-20T10:50:58;5.55;;;2.45;;
44822;SDS011;51097;51.984;5.650;2023-05-20T10:53:27;5.63;;;2.45;;
44822;SDS011;51097;51.984;5.650;2023-05-20T10:55:55;5.68;;;2.00;;
44822;SDS011;51097;51.984;5.650;2023-05-20T10:58:21;4.78;;;2.17;;
44822;SDS011;51097;51.984;5.650;2023-05-20T11:00:48;4.78;;;2.58;;
44822;SDS011;51097;51.984;5.650;2023-05-20T11:03:17;2.35;;;2.10;;
44822;SDS011;51097;51.984;5.650;2023-05-20T11:05:45;4.15;;;2.35;;
44822;SDS011;51097;51.984;5.650;2023-05-20T11:08:12;3.35;;;2.28;;
44822;SDS011;51097;51.984;5.650;2023-05-20T11:10:38;5.25;;;2.30;;
44822;SDS011;51097;51.984;5.650;2023-05-20T11:13:05;5.30;;;2.13;;
44822;SDS011;51097;51.984;5.650;2023-05-20T11:15:31;2.78;;;2.05;;
44822;SDS011;51097;51.984;5.650;2023-05-20T11:17:59;7.55;;;2.30;;
44822;SDS011;51097;51.984;5.650;2023-05-20T11:20:26;4.00;;;1.83;;
44822;SDS011;51097;51.984;5.650;2023-05-20T11:22:55;6.53;;;1.98;;
44822;SDS011;51097;51.984;5.650;2023-05-20T11:25:21;6.63;;;2.20;;
44822;SDS011;51097;51.984;5.650;2023-05-20T11:27:49;4.05;;;2.10;;
44822;SDS011;51097;51.984;5.650;2023-05-20T11:30:16;1.88;;;1.58;;
44822;SDS011;51097;51.984;5.650;2023-05-20T11:32:57;5.72;;;2.20;;
44822;SDS011;51097;51.984;5.650;2023-05-20T11:35:24;2.75;;;2.20;;
44822;SDS011;51097;51.984;5.650;2023-05-20T11:37:54;7.18;;;2.15;;
44822;SDS011;51097;51.984;5.650;2023-05-20T11:40:25;6.43;;;2.20;;
44822;SDS011;51097;51.984;5.650;2023-05-20T11:42:54;3.38;;;1.80;;
44822;SDS011;51097;51.984;5.650;2023-05-20T11:45:20;2.85;;;1.90;;
44822;SDS011;51097;51.984;5.650;2023-05-20T11:47:57;4.30;;;1.88;;
44822;SDS011;51097;51.984;5.650;2023-05-20T11:50:23;2.17;;;1.70;;
44822;SDS011;51097;51.984;5.650;2023-05-20T11:52:54;5.97;;;1.90;;
44822;SDS011;51097;51.984;5.650;2023-05-20T11:55:24;3.20;;;2.00;;
44822;SDS011;51097;51.984;5.650;2023-05-20T11:57:53;8.10;;;2.83;;
44822;SDS011;51097;51.984;5.650;2023-05-20T12:00:18;3.45;;;1.70;;
44822;SDS011;51097;51.984;5.650;2023-05-20T12:02:45;3.67;;;1.60;;
44822;SDS011;51097;51.984;5.650;2023-05-20T12:05:11;5.13;;;2.28;;
44822;SDS011;51097;51.984;5.650;2023-05-20T12:07:37;4.93;;;1.95;;
44822;SDS011;51097;51.984;5.650;2023-05-20T12:10:03;3.63;;;1.90;;
44822;SDS011;51097;51.984;5.650;2023-05-20T12:12:29;2.50;;;1.70;;
44822;SDS011;51097;51.984;5.650;2023-05-20T12:14:55;4.20;;;2.15;;
44822;SDS011;51097;51.984;5.650;2023-05-20T12:17:20;5.38;;;2.33;;
44822;SDS011;51097;51.984;5.650;2023-05-20T12:19:46;4.78;;;2.45;;
44822;SDS011;51097;51.984;5.650;2023-05-20T12:22:12;3.47;;;1.83;;
44822;SDS011;51097;51.984;5.650;2023-05-20T12:24:37;2.70;;;1.80;;
44822;SDS011;51097;51.984;5.650;2023-05-20T12:27:03;3.63;;;1.77;;
44822;SDS011;51097;51.984;5.650;2023-05-20T12:29:30;4.07;;;2.17;;
44822;SDS011;51097;51.984;5.650;2023-05-20T12:31:56;5.97;;;2.20;;
44822;SDS011;51097;51.984;5.650;2023-05-20T12:34:21;2.92;;;1.98;;
44822;SDS011;51097;51.984;5.650;2023-05-20T12:36:47;3.40;;;2.35;;
44822;SDS011;51097;51.984;5.650;2023-05-20T12:39:13;3.95;;;1.70;;
44822;SDS011;51097;51.984;5.650;2023-05-20T12:41:41;3.35;;;1.83;;
44822;SDS011;51097;51.984;5.650;2023-05-20T12:44:07;2.38;;;1.80;;
44822;SDS011;51097;51.984;5.650;2023-05-20T12:46:33;8.18;;;2.30;;
44822;SDS011;51097;51.984;5.650;2023-05-20T12:49:02;3.03;;;2.15;;
44822;SDS011;51097;51.984;5.650;2023-05-20T12:51:27;3.80;;;1.90;;
44822;SDS011;51097;51.984;5.650;2023-05-20T12:53:53;2.20;;;1.85;;
44822;SDS011;51097;51.984;5.650;2023-05-20T12:56:19;3.30;;;1.90;;
44822;SDS011;51097;51.984;5.650;2023-05-20T12:58:45;5.22;;;1.98;;
44822;SDS011;51097;51.984;5.650;2023-05-20T13:01:10;3.33;;;2.10;;
44822;SDS011;51097;51.984;5.650;2023-05-20T13:03:36;3.17;;;1.75;;
44822;SDS011;51097;51.984;5.650;2023-05-20T13:06:02;2.28;;;1.77;;
44822;SDS011;51097;51.984;5.650;2023-05-20T13:08:28;3.28;;;2.00;;
44822;SDS011;51097;51.984;5.650;2023-05-20T13:10:53;3.85;;;2.17;;
44822;SDS011;51097;51.984;5.650;2023-05-20T13:13:19;4.35;;;2.10;;
44822;SDS011;51097;51.984;5.650;2023-05-20T13:15:48;3.65;;;1.95;;
44822;SDS011;51097;51.984;5.650;2023-05-20T13:18:14;3.23;;;2.10;;
44822;SDS011;51097;51.984;5.650;2023-05-20T13:20:43;3.88;;;2.05;;
44822;SDS011;51097;51.984;5.650;2023-05-20T13:23:09;4.28;;;1.60;;
44822;SDS011;51097;51.984;5.650;2023-05-20T13:25:35;2.90;;;1.60;;
44822;SDS011;51097;51.984;5.650;2023-05-20T13:28:01;2.22;;;1.70;;
44822;SDS011;51097;51.984;5.650;2023-05-20T13:30:29;4.50;;;2.17;;
44822;SDS011;51097;51.984;5.650;2023-05-20T13:32:56;2.92;;;2.05;;
44822;SDS011;51097;51.984;5.650;2023-05-20T13:35:21;2.90;;;1.67;;
44822;SDS011;51097;51.984;5.650;2023-05-20T13:37:47;6.43;;;1.67;;
44822;SDS011;51097;51.984;5.650;2023-05-20T13:40:13;3.13;;;1.95;;
44822;SDS011;51097;51.984;5.650;2023-05-20T13:42:38;4.43;;;1.92;;
44822;SDS011;51097;51.984;5.650;2023-05-20T13:45:04;3.83;;;1.88;;
44822;SDS011;51097;51.984;5.650;2023-05-20T13:47:30;2.20;;;2.00;;
44822;SDS011;51097;51.984;5.650;2023-05-20T13:49:56;4.60;;;2.30;;
44822;SDS011;51097;51.984;5.650;2023-05-20T13:52:21;5.45;;;1.98;;
44822;SDS011;51097;51.984;5.650;2023-05-20T13:54:47;4.95;;;1.98;;
44822;SDS011;51097;51.984;5.650;2023-05-20T13:57:13;8.63;;;2.80;;
44822;SDS011;51097;51.984;5.650;2023-05-20T13:59:39;2.90;;;2.10;;
44822;SDS011;51097;51.984;5.650;2023-05-20T14:02:05;3.55;;;2.08;;
44822;SDS011;51097;51.984;5.650;2023-05-20T14:04:31;4.75;;;2.10;;
44822;SDS011;51097;51.984;5.650;2023-05-20T14:07:02;4.30;;;2.25;;
44822;SDS011;51097;51.984;5.650;2023-05-20T14:09:28;4.63;;;2.30;;
44822;SDS011;51097;51.984;5.650;2023-05-20T14:11:54;2.95;;;1.80;;
44822;SDS011;51097;51.984;5.650;2023-05-20T14:14:20;4.55;;;2.00;;
44822;SDS011;51097;51.984;5.650;2023-05-20T14:16:47;3.10;;;1.70;;
44822;SDS011;51097;51.984;5.650;2023-05-20T14:19:12;4.50;;;1.73;;
44822;SDS011;51097;51.984;5.650;2023-05-20T14:21:38;2.20;;;1.90;;
44822;SDS011;51097;51.984;5.650;2023-05-20T14:24:03;4.75;;;2.22;;
44822;SDS011;51097;51.984;5.650;2023-05-20T14:26:30;3.30;;;2.10;;
44822;SDS011;51097;51.984;5.650;2023-05-20T14:28:56;2.72;;;1.73;;
44822;SDS011;51097;51.984;5.650;2023-05-20T14:31:22;3.92;;;1.70;;
44822;SDS011;51097;51.984;5.650;2023-05-20T14:33:48;4.03;;;1.98;;
44822;SDS011;51097;51.984;5.650;2023-05-20T14:36:13;2.15;;;1.92;;
44822;SDS011;51097;51.984;5.650;2023-05-20T14:38:39;4.10;;;1.90;;
44822;SDS011;51097;51.984;5.650;2023-05-20T14:41:04;3.28;;;1.48;;
44822;SDS011;51097;51.984;5.650;2023-05-20T14:43:30;4.03;;;2.05;;
44822;SDS011;51097;51.984;5.650;2023-05-20T14:45:58;2.92;;;1.90;;
44822;SDS011;51097;51.984;5.650;2023-05-20T14:48:24;2.90;;;2.25;;
44822;SDS011;51097;51.984;5.650;2023-05-20T14:50:50;4.97;;;1.77;;
44822;SDS011;51097;51.984;5.650;2023-05-20T14:53:16;3.00;;;1.98;;